Terminal Aerodrome Forecast
Issued by NWS Pocatello, ID

Home | Current Version | Previous Version | Text Only | Print | Product List | Glossary On
Versions: 1 2 3 4 5 6 7 8 9 10 11 12 13 14 15 16 17
000
FTUS45 KPIH 020500
TAFPIH
TAF
KPIH 020520Z 0206/0306 04007KT P6SM SCT120
     FM022000 VRB06KT P6SM VCTS FEW100CB SCT120
     FM030200 VRB05KT P6SM SCT120=

USA.gov is the U.S. government's official web portal to all federal, state and local government web resources and services.